sensor_id;sensor_type;location;lat;lon;timestamp;P1;durP1;ratioP1;P2;durP2;ratioP2
14116;SDS011;7137;51.436;6.544;2023-07-20T00:00:42;7.00;;;4.40;;
14116;SDS011;7137;51.436;6.544;2023-07-20T00:03:43;7.70;;;4.50;;
14116;SDS011;7137;51.436;6.544;2023-07-20T00:06:54;7.47;;;4.33;;
14116;SDS011;7137;51.436;6.544;2023-07-20T00:09:56;7.07;;;4.57;;
14116;SDS011;7137;51.436;6.544;2023-07-20T00:12:59;8.00;;;4.47;;
14116;SDS011;7137;51.436;6.544;2023-07-20T00:16:00;6.33;;;4.27;;
14116;SDS011;7137;51.436;6.544;2023-07-20T00:19:02;6.40;;;4.20;;
14116;SDS011;7137;51.436;6.544;2023-07-20T00:22:05;7.60;;;4.43;;
14116;SDS011;7137;51.436;6.544;2023-07-20T00:25:06;8.23;;;4.60;;
14116;SDS011;7137;51.436;6.544;2023-07-20T00:28:10;5.97;;;4.27;;
14116;SDS011;7137;51.436;6.544;2023-07-20T00:31:11;6.87;;;4.20;;
14116;SDS011;7137;51.436;6.544;2023-07-20T00:34:13;7.60;;;4.27;;
14116;SDS011;7137;51.436;6.544;2023-07-20T00:37:14;6.93;;;4.30;;
14116;SDS011;7137;51.436;6.544;2023-07-20T00:40:16;6.30;;;4.23;;
14116;SDS011;7137;51.436;6.544;2023-07-20T00:43:19;6.53;;;4.10;;
14116;SDS011;7137;51.436;6.544;2023-07-20T00:46:21;7.60;;;4.23;;
14116;SDS011;7137;51.436;6.544;2023-07-20T00:49:24;7.03;;;4.10;;
14116;SDS011;7137;51.436;6.544;2023-07-20T00:52:25;6.43;;;3.97;;
14116;SDS011;7137;51.436;6.544;2023-07-20T00:55:29;6.90;;;4.33;;
14116;SDS011;7137;51.436;6.544;2023-07-20T00:58:33;7.00;;;4.50;;
14116;SDS011;7137;51.436;6.544;2023-07-20T01:01:34;6.37;;;4.67;;
14116;SDS011;7137;51.436;6.544;2023-07-20T01:04:36;7.57;;;4.80;;
14116;SDS011;7137;51.436;6.544;2023-07-20T01:07:38;7.53;;;5.00;;
14116;SDS011;7137;51.436;6.544;2023-07-20T01:10:53;8.47;;;4.90;;
14116;SDS011;7137;51.436;6.544;2023-07-20T01:14:00;6.67;;;4.80;;
14116;SDS011;7137;51.436;6.544;2023-07-20T01:17:01;8.63;;;4.93;;
14116;SDS011;7137;51.436;6.544;2023-07-20T01:20:03;10.97;;;6.63;;
14116;SDS011;7137;51.436;6.544;2023-07-20T01:23:19;8.87;;;6.30;;
14116;SDS011;7137;51.436;6.544;2023-07-20T01:26:37;10.40;;;5.93;;
14116;SDS011;7137;51.436;6.544;2023-07-20T01:33:26;9.73;;;7.20;;
14116;SDS011;7137;51.436;6.544;2023-07-20T01:36:30;10.43;;;6.70;;
14116;SDS011;7137;51.436;6.544;2023-07-20T01:39:35;7.93;;;6.23;;
14116;SDS011;7137;51.436;6.544;2023-07-20T01:42:38;8.93;;;6.50;;
14116;SDS011;7137;51.436;6.544;2023-07-20T01:45:39;9.37;;;6.60;;
14116;SDS011;7137;51.436;6.544;2023-07-20T01:48:42;9.83;;;6.30;;
14116;SDS011;7137;51.436;6.544;2023-07-20T01:51:44;8.93;;;6.30;;
14116;SDS011;7137;51.436;6.544;2023-07-20T01:54:46;9.70;;;6.53;;
14116;SDS011;7137;51.436;6.544;2023-07-20T01:57:47;9.80;;;7.13;;
14116;SDS011;7137;51.436;6.544;2023-07-20T02:00:49;9.37;;;6.90;;
14116;SDS011;7137;51.436;6.544;2023-07-20T02:03:51;10.20;;;6.77;;
14116;SDS011;7137;51.436;6.544;2023-07-20T02:06:54;7.90;;;6.57;;
14116;SDS011;7137;51.436;6.544;2023-07-20T02:09:56;7.80;;;6.50;;
14116;SDS011;7137;51.436;6.544;2023-07-20T02:12:57;10.37;;;7.03;;
14116;SDS011;7137;51.436;6.544;2023-07-20T02:15:59;12.30;;;7.33;;
14116;SDS011;7137;51.436;6.544;2023-07-20T02:19:02;11.93;;;7.63;;
14116;SDS011;7137;51.436;6.544;2023-07-20T02:22:04;10.33;;;7.90;;
14116;SDS011;7137;51.436;6.544;2023-07-20T02:25:06;9.60;;;7.90;;
14116;SDS011;7137;51.436;6.544;2023-07-20T02:28:09;10.43;;;7.60;;
14116;SDS011;7137;51.436;6.544;2023-07-20T02:31:10;10.37;;;8.27;;
14116;SDS011;7137;51.436;6.544;2023-07-20T02:34:13;10.43;;;8.10;;
14116;SDS011;7137;51.436;6.544;2023-07-20T02:37:15;11.10;;;7.80;;
14116;SDS011;7137;51.436;6.544;2023-07-20T02:40:17;12.93;;;8.33;;
14116;SDS011;7137;51.436;6.544;2023-07-20T02:43:18;8.73;;;7.60;;
14116;SDS011;7137;51.436;6.544;2023-07-20T02:46:20;8.90;;;7.13;;
14116;SDS011;7137;51.436;6.544;2023-07-20T02:49:23;9.70;;;7.40;;
14116;SDS011;7137;51.436;6.544;2023-07-20T02:52:24;10.13;;;7.70;;
14116;SDS011;7137;51.436;6.544;2023-07-20T02:55:26;11.87;;;7.63;;
14116;SDS011;7137;51.436;6.544;2023-07-20T02:58:28;9.20;;;7.30;;
14116;SDS011;7137;51.436;6.544;2023-07-20T03:01:29;11.60;;;7.70;;
14116;SDS011;7137;51.436;6.544;2023-07-20T03:04:32;9.90;;;7.60;;
14116;SDS011;7137;51.436;6.544;2023-07-20T03:07:34;12.23;;;7.87;;
14116;SDS011;7137;51.436;6.544;2023-07-20T03:10:38;11.20;;;8.33;;
14116;SDS011;7137;51.436;6.544;2023-07-20T03:13:41;10.93;;;8.37;;
14116;SDS011;7137;51.436;6.544;2023-07-20T03:16:43;11.27;;;8.50;;
14116;SDS011;7137;51.436;6.544;2023-07-20T03:19:46;11.60;;;8.83;;
14116;SDS011;7137;51.436;6.544;2023-07-20T03:22:47;12.53;;;9.43;;
14116;SDS011;7137;51.436;6.544;2023-07-20T03:25:49;11.80;;;9.17;;
14116;SDS011;7137;51.436;6.544;2023-07-20T03:28:53;11.97;;;10.07;;
14116;SDS011;7137;51.436;6.544;2023-07-20T03:31:55;12.83;;;10.40;;
14116;SDS011;7137;51.436;6.544;2023-07-20T03:34:58;13.27;;;10.33;;
14116;SDS011;7137;51.436;6.544;2023-07-20T03:37:59;14.17;;;11.23;;
14116;SDS011;7137;51.436;6.544;2023-07-20T03:41:01;14.60;;;11.10;;
14116;SDS011;7137;51.436;6.544;2023-07-20T03:44:02;14.03;;;11.27;;
14116;SDS011;7137;51.436;6.544;2023-07-20T03:47:05;13.57;;;11.60;;
14116;SDS011;7137;51.436;6.544;2023-07-20T03:50:08;15.23;;;11.47;;
14116;SDS011;7137;51.436;6.544;2023-07-20T03:53:10;16.17;;;11.70;;
14116;SDS011;7137;51.436;6.544;2023-07-20T03:56:12;14.83;;;12.10;;
14116;SDS011;7137;51.436;6.544;2023-07-20T03:59:13;15.23;;;12.13;;
14116;SDS011;7137;51.436;6.544;2023-07-20T04:02:15;14.40;;;12.60;;
14116;SDS011;7137;51.436;6.544;2023-07-20T04:05:18;16.00;;;12.67;;
14116;SDS011;7137;51.436;6.544;2023-07-20T04:08:20;16.80;;;13.63;;
14116;SDS011;7137;51.436;6.544;2023-07-20T04:11:21;15.30;;;13.67;;
14116;SDS011;7137;51.436;6.544;2023-07-20T04:14:23;16.07;;;13.57;;
14116;SDS011;7137;51.436;6.544;2023-07-20T04:17:24;14.07;;;12.27;;
14116;SDS011;7137;51.436;6.544;2023-07-20T04:20:28;15.00;;;12.97;;
14116;SDS011;7137;51.436;6.544;2023-07-20T04:23:29;15.60;;;13.00;;
14116;SDS011;7137;51.436;6.544;2023-07-20T04:26:31;18.50;;;15.93;;
14116;SDS011;7137;51.436;6.544;2023-07-20T04:29:32;17.33;;;14.00;;
14116;SDS011;7137;51.436;6.544;2023-07-20T04:32:34;14.73;;;13.20;;
14116;SDS011;7137;51.436;6.544;2023-07-20T04:35:47;15.90;;;13.37;;
14116;SDS011;7137;51.436;6.544;2023-07-20T04:38:50;15.10;;;13.40;;
14116;SDS011;7137;51.436;6.544;2023-07-20T04:41:52;14.87;;;13.40;;
14116;SDS011;7137;51.436;6.544;2023-07-20T04:44:54;15.13;;;13.63;;
14116;SDS011;7137;51.436;6.544;2023-07-20T04:47:55;17.93;;;15.13;;
14116;SDS011;7137;51.436;6.544;2023-07-20T04:50:58;17.20;;;15.40;;
14116;SDS011;7137;51.436;6.544;2023-07-20T04:54:00;18.00;;;16.13;;
14116;SDS011;7137;51.436;6.544;2023-07-20T04:57:02;18.30;;;15.90;;
14116;SDS011;7137;51.436;6.544;2023-07-20T05:00:04;17.70;;;15.90;;
14116;SDS011;7137;51.436;6.544;2023-07-20T05:03:06;16.63;;;14.93;;
14116;SDS011;7137;51.436;6.544;2023-07-20T05:06:09;16.83;;;15.13;;
14116;SDS011;7137;51.436;6.544;2023-07-20T05:09:12;16.87;;;15.27;;
14116;SDS011;7137;51.436;6.544;2023-07-20T05:12:14;16.47;;;14.77;;
14116;SDS011;7137;51.436;6.544;2023-07-20T05:15:15;16.70;;;15.00;;
14116;SDS011;7137;51.436;6.544;2023-07-20T05:18:17;15.90;;;14.30;;
14116;SDS011;7137;51.436;6.544;2023-07-20T05:21:22;16.17;;;14.57;;
14116;SDS011;7137;51.436;6.544;2023-07-20T05:24:23;14.57;;;13.03;;
14116;SDS011;7137;51.436;6.544;2023-07-20T05:27:25;14.30;;;12.90;;
14116;SDS011;7137;51.436;6.544;2023-07-20T05:30:26;12.23;;;10.97;;
14116;SDS011;7137;51.436;6.544;2023-07-20T05:33:29;10.20;;;9.20;;
14116;SDS011;7137;51.436;6.544;2023-07-20T05:36:32;10.43;;;8.90;;
14116;SDS011;7137;51.436;6.544;2023-07-20T05:39:33;11.40;;;10.20;;
14116;SDS011;7137;51.436;6.544;2023-07-20T05:42:35;9.10;;;8.20;;
14116;SDS011;7137;51.436;6.544;2023-07-20T05:45:37;8.33;;;7.33;;
14116;SDS011;7137;51.436;6.544;2023-07-20T05:48:38;7.63;;;6.83;;
14116;SDS011;7137;51.436;6.544;2023-07-20T05:51:41;8.17;;;6.70;;
14116;SDS011;7137;51.436;6.544;2023-07-20T05:54:43;8.00;;;6.70;;
14116;SDS011;7137;51.436;6.544;2023-07-20T05:57:44;7.13;;;6.23;;
14116;SDS011;7137;51.436;6.544;2023-07-20T06:00:48;7.20;;;5.83;;
14116;SDS011;7137;51.436;6.544;2023-07-20T06:03:50;7.00;;;5.30;;
14116;SDS011;7137;51.436;6.544;2023-07-20T06:06:53;6.67;;;5.37;;
14116;SDS011;7137;51.436;6.544;2023-07-20T06:09:55;5.60;;;4.77;;
14116;SDS011;7137;51.436;6.544;2023-07-20T06:12:58;5.10;;;4.27;;
14116;SDS011;7137;51.436;6.544;2023-07-20T06:16:00;6.07;;;3.87;;
14116;SDS011;7137;51.436;6.544;2023-07-20T06:19:01;5.37;;;4.10;;
14116;SDS011;7137;51.436;6.544;2023-07-20T06:22:05;5.87;;;4.00;;
14116;SDS011;7137;51.436;6.544;2023-07-20T06:25:07;5.07;;;3.40;;
14116;SDS011;7137;51.436;6.544;2023-07-20T06:28:09;5.73;;;3.23;;
14116;SDS011;7137;51.436;6.544;2023-07-20T06:31:11;6.13;;;3.30;;
14116;SDS011;7137;51.436;6.544;2023-07-20T06:34:12;4.90;;;2.90;;
14116;SDS011;7137;51.436;6.544;2023-07-20T06:37:15;3.80;;;2.10;;
14116;SDS011;7137;51.436;6.544;2023-07-20T06:40:17;4.23;;;2.50;;
14116;SDS011;7137;51.436;6.544;2023-07-20T06:43:19;3.80;;;2.07;;
14116;SDS011;7137;51.436;6.544;2023-07-20T06:46:21;3.60;;;2.30;;
14116;SDS011;7137;51.436;6.544;2023-07-20T06:49:25;3.00;;;1.93;;
14116;SDS011;7137;51.436;6.544;2023-07-20T06:52:29;3.77;;;2.20;;
14116;SDS011;7137;51.436;6.544;2023-07-20T06:55:30;3.43;;;2.20;;
14116;SDS011;7137;51.436;6.544;2023-07-20T06:58:32;2.43;;;1.73;;
14116;SDS011;7137;51.436;6.544;2023-07-20T07:01:33;2.80;;;1.80;;
14116;SDS011;7137;51.436;6.544;2023-07-20T07:04:35;2.50;;;1.67;;
14116;SDS011;7137;51.436;6.544;2023-07-20T07:07:38;3.27;;;1.33;;
14116;SDS011;7137;51.436;6.544;2023-07-20T07:10:39;2.97;;;1.40;;
14116;SDS011;7137;51.436;6.544;2023-07-20T07:13:41;2.80;;;1.37;;
14116;SDS011;7137;51.436;6.544;2023-07-20T07:16:42;2.73;;;1.30;;
14116;SDS011;7137;51.436;6.544;2023-07-20T07:19:44;2.33;;;1.30;;
14116;SDS011;7137;51.436;6.544;2023-07-20T07:22:47;3.07;;;1.30;;
14116;SDS011;7137;51.436;6.544;2023-07-20T07:25:48;2.83;;;1.60;;
14116;SDS011;7137;51.436;6.544;2023-07-20T07:28:50;2.80;;;1.60;;
14116;SDS011;7137;51.436;6.544;2023-07-20T07:31:52;2.40;;;1.43;;
14116;SDS011;7137;51.436;6.544;2023-07-20T07:34:53;2.60;;;1.30;;
14116;SDS011;7137;51.436;6.544;2023-07-20T07:37:57;3.20;;;1.20;;
14116;SDS011;7137;51.436;6.544;2023-07-20T07:40:59;2.07;;;1.20;;
14116;SDS011;7137;51.436;6.544;2023-07-20T07:44:00;3.63;;;1.47;;
14116;SDS011;7137;51.436;6.544;2023-07-20T07:47:02;2.90;;;1.37;;
14116;SDS011;7137;51.436;6.544;2023-07-20T07:50:04;2.30;;;1.10;;
14116;SDS011;7137;51.436;6.544;2023-07-20T07:53:08;2.87;;;1.23;;
14116;SDS011;7137;51.436;6.544;2023-07-20T07:56:11;2.93;;;0.90;;
14116;SDS011;7137;51.436;6.544;2023-07-20T07:59:13;1.87;;;0.93;;
14116;SDS011;7137;51.436;6.544;2023-07-20T08:02:14;2.77;;;1.13;;
14116;SDS011;7137;51.436;6.544;2023-07-20T08:05:16;1.73;;;1.10;;
14116;SDS011;7137;51.436;6.544;2023-07-20T08:08:19;1.67;;;0.83;;
14116;SDS011;7137;51.436;6.544;2023-07-20T08:11:21;2.40;;;1.10;;
14116;SDS011;7137;51.436;6.544;2023-07-20T08:14:22;1.93;;;1.10;;
14116;SDS011;7137;51.436;6.544;2023-07-20T08:17:25;3.20;;;1.17;;
14116;SDS011;7137;51.436;6.544;2023-07-20T08:20:27;2.13;;;1.20;;
14116;SDS011;7137;51.436;6.544;2023-07-20T08:23:30;2.40;;;1.50;;
14116;SDS011;7137;51.436;6.544;2023-07-20T08:26:31;2.47;;;1.20;;
14116;SDS011;7137;51.436;6.544;2023-07-20T08:29:33;1.50;;;1.00;;
14116;SDS011;7137;51.436;6.544;2023-07-20T08:32:35;1.53;;;0.80;;
14116;SDS011;7137;51.436;6.544;2023-07-20T08:35:36;1.63;;;0.90;;
14116;SDS011;7137;51.436;6.544;2023-07-20T08:38:39;1.67;;;0.77;;
14116;SDS011;7137;51.436;6.544;2023-07-20T08:41:41;1.30;;;0.63;;
14116;SDS011;7137;51.436;6.544;2023-07-20T08:44:43;1.80;;;0.70;;
14116;SDS011;7137;51.436;6.544;2023-07-20T08:47:49;1.07;;;0.70;;
14116;SDS011;7137;51.436;6.544;2023-07-20T08:50:51;1.93;;;0.80;;
14116;SDS011;7137;51.436;6.544;2023-07-20T08:53:55;0.80;;;0.80;;
14116;SDS011;7137;51.436;6.544;2023-07-20T08:56:57;0.90;;;0.70;;
14116;SDS011;7137;51.436;6.544;2023-07-20T09:00:03;1.87;;;0.73;;
14116;SDS011;7137;51.436;6.544;2023-07-20T09:03:10;1.33;;;0.70;;
14116;SDS011;7137;51.436;6.544;2023-07-20T09:06:12;1.77;;;0.97;;
14116;SDS011;7137;51.436;6.544;2023-07-20T09:09:15;2.23;;;0.70;;
14116;SDS011;7137;51.436;6.544;2023-07-20T09:12:17;1.97;;;0.80;;
14116;SDS011;7137;51.436;6.544;2023-07-20T09:15:19;1.93;;;0.90;;
14116;SDS011;7137;51.436;6.544;2023-07-20T09:18:24;2.20;;;1.00;;
14116;SDS011;7137;51.436;6.544;2023-07-20T09:21:28;1.80;;;0.47;;
14116;SDS011;7137;51.436;6.544;2023-07-20T09:24:32;1.83;;;0.90;;
14116;SDS011;7137;51.436;6.544;2023-07-20T09:27:35;1.90;;;0.70;;
14116;SDS011;7137;51.436;6.544;2023-07-20T09:30:37;1.67;;;0.80;;
14116;SDS011;7137;51.436;6.544;2023-07-20T09:33:39;1.20;;;0.70;;
14116;SDS011;7137;51.436;6.544;2023-07-20T09:36:40;5.00;;;1.20;;
14116;SDS011;7137;51.436;6.544;2023-07-20T09:39:44;1.00;;;0.80;;
14116;SDS011;7137;51.436;6.544;2023-07-20T09:42:46;3.97;;;1.10;;
14116;SDS011;7137;51.436;6.544;2023-07-20T09:45:48;2.03;;;0.67;;
14116;SDS011;7137;51.436;6.544;2023-07-20T09:48:53;3.27;;;0.80;;
14116;SDS011;7137;51.436;6.544;2023-07-20T09:51:55;0.93;;;0.60;;
14116;SDS011;7137;51.436;6.544;2023-07-20T09:55:00;1.50;;;0.80;;
14116;SDS011;7137;51.436;6.544;2023-07-20T09:58:04;1.33;;;0.70;;
14116;SDS011;7137;51.436;6.544;2023-07-20T10:01:07;2.27;;;0.77;;
14116;SDS011;7137;51.436;6.544;2023-07-20T10:04:10;1.27;;;0.80;;
14116;SDS011;7137;51.436;6.544;2023-07-20T10:07:13;1.13;;;0.60;;
14116;SDS011;7137;51.436;6.544;2023-07-20T10:10:19;2.03;;;0.63;;
14116;SDS011;7137;51.436;6.544;2023-07-20T10:13:21;1.73;;;0.80;;
14116;SDS011;7137;51.436;6.544;2023-07-20T10:16:28;1.67;;;0.80;;
14116;SDS011;7137;51.436;6.544;2023-07-20T10:19:34;1.97;;;0.80;;
14116;SDS011;7137;51.436;6.544;2023-07-20T10:22:44;8.27;;;1.53;;
14116;SDS011;7137;51.436;6.544;2023-07-20T10:25:50;20.60;;;3.23;;
14116;SDS011;7137;51.436;6.544;2023-07-20T10:28:52;14.03;;;1.90;;
14116;SDS011;7137;51.436;6.544;2023-07-20T10:31:54;2.20;;;1.00;;
14116;SDS011;7137;51.436;6.544;2023-07-20T10:34:56;5.77;;;1.23;;
14116;SDS011;7137;51.436;6.544;2023-07-20T10:38:01;12.97;;;2.13;;
14116;SDS011;7137;51.436;6.544;2023-07-20T10:41:05;1.47;;;0.80;;
14116;SDS011;7137;51.436;6.544;2023-07-20T10:44:19;5.20;;;1.00;;
14116;SDS011;7137;51.436;6.544;2023-07-20T10:47:22;0.97;;;0.80;;
14116;SDS011;7137;51.436;6.544;2023-07-20T10:50:24;1.93;;;0.83;;
14116;SDS011;7137;51.436;6.544;2023-07-20T10:53:25;1.23;;;0.70;;
14116;SDS011;7137;51.436;6.544;2023-07-20T10:56:29;1.83;;;0.70;;
14116;SDS011;7137;51.436;6.544;2023-07-20T10:59:36;1.33;;;0.67;;
14116;SDS011;7137;51.436;6.544;2023-07-20T11:02:42;1.50;;;0.70;;
14116;SDS011;7137;51.436;6.544;2023-07-20T11:05:44;1.73;;;0.87;;
14116;SDS011;7137;51.436;6.544;2023-07-20T11:08:46;1.13;;;0.70;;
14116;SDS011;7137;51.436;6.544;2023-07-20T11:11:49;1.13;;;0.60;;
14116;SDS011;7137;51.436;6.544;2023-07-20T11:14:53;2.13;;;0.80;;
14116;SDS011;7137;51.436;6.544;2023-07-20T11:18:10;2.63;;;0.80;;
14116;SDS011;7137;51.436;6.544;2023-07-20T11:21:13;1.80;;;0.77;;
14116;SDS011;7137;51.436;6.544;2023-07-20T11:24:16;1.17;;;0.70;;
14116;SDS011;7137;51.436;6.544;2023-07-20T11:27:20;1.83;;;0.70;;
14116;SDS011;7137;51.436;6.544;2023-07-20T11:30:22;0.50;;;0.50;;
14116;SDS011;7137;51.436;6.544;2023-07-20T11:33:24;1.53;;;0.70;;
14116;SDS011;7137;51.436;6.544;2023-07-20T11:36:27;1.50;;;0.70;;
14116;SDS011;7137;51.436;6.544;2023-07-20T11:39:28;2.00;;;0.80;;
14116;SDS011;7137;51.436;6.544;2023-07-20T11:42:32;1.50;;;0.70;;
14116;SDS011;7137;51.436;6.544;2023-07-20T11:45:33;1.17;;;0.70;;
14116;SDS011;7137;51.436;6.544;2023-07-20T11:48:36;1.87;;;1.10;;
14116;SDS011;7137;51.436;6.544;2023-07-20T11:51:37;1.47;;;0.70;;
14116;SDS011;7137;51.436;6.544;2023-07-20T11:54:41;2.07;;;0.80;;
14116;SDS011;7137;51.436;6.544;2023-07-20T12:01:06;0.83;;;0.60;;
14116;SDS011;7137;51.436;6.544;2023-07-20T12:04:08;1.70;;;0.63;;
14116;SDS011;7137;51.436;6.544;2023-07-20T12:07:09;1.60;;;0.73;;
14116;SDS011;7137;51.436;6.544;2023-07-20T12:10:11;2.10;;;0.70;;
14116;SDS011;7137;51.436;6.544;2023-07-20T12:13:14;1.90;;;0.73;;
14116;SDS011;7137;51.436;6.544;2023-07-20T12:16:16;2.07;;;0.70;;
14116;SDS011;7137;51.436;6.544;2023-07-20T12:19:18;0.83;;;0.50;;
14116;SDS011;7137;51.436;6.544;2023-07-20T12:22:19;1.70;;;0.60;;
14116;SDS011;7137;51.436;6.544;2023-07-20T12:25:21;1.20;;;0.70;;
14116;SDS011;7137;51.436;6.544;2023-07-20T12:28:24;2.07;;;0.80;;
14116;SDS011;7137;51.436;6.544;2023-07-20T12:31:26;2.13;;;0.70;;
14116;SDS011;7137;51.436;6.544;2023-07-20T12:34:29;0.93;;;0.60;;
14116;SDS011;7137;51.436;6.544;2023-07-20T12:37:31;1.93;;;0.67;;
14116;SDS011;7137;51.436;6.544;2023-07-20T12:40:33;1.20;;;0.73;;
14116;SDS011;7137;51.436;6.544;2023-07-20T12:43:37;2.13;;;0.70;;
14116;SDS011;7137;51.436;6.544;2023-07-20T12:46:41;2.07;;;0.80;;
14116;SDS011;7137;51.436;6.544;2023-07-20T12:49:42;0.97;;;0.63;;
14116;SDS011;7137;51.436;6.544;2023-07-20T12:52:45;2.83;;;0.80;;
14116;SDS011;7137;51.436;6.544;2023-07-20T12:55:46;1.33;;;0.80;;
14116;SDS011;7137;51.436;6.544;2023-07-20T12:58:50;1.67;;;0.80;;
14116;SDS011;7137;51.436;6.544;2023-07-20T13:01:51;2.40;;;0.70;;
14116;SDS011;7137;51.436;6.544;2023-07-20T13:04:53;1.63;;;0.90;;
14116;SDS011;7137;51.436;6.544;2023-07-20T13:07:55;1.63;;;0.70;;
14116;SDS011;7137;51.436;6.544;2023-07-20T13:10:57;1.80;;;0.73;;
14116;SDS011;7137;51.436;6.544;2023-07-20T13:14:02;1.97;;;0.80;;
14116;SDS011;7137;51.436;6.544;2023-07-20T13:17:03;1.47;;;0.80;;
14116;SDS011;7137;51.436;6.544;2023-07-20T13:20:06;1.63;;;0.90;;
14116;SDS011;7137;51.436;6.544;2023-07-20T13:23:10;0.90;;;0.70;;
14116;SDS011;7137;51.436;6.544;2023-07-20T13:26:12;1.77;;;0.80;;
14116;SDS011;7137;51.436;6.544;2023-07-20T13:29:15;1.27;;;0.80;;
14116;SDS011;7137;51.436;6.544;2023-07-20T13:32:17;1.53;;;0.70;;
14116;SDS011;7137;51.436;6.544;2023-07-20T13:35:19;1.67;;;0.70;;
14116;SDS011;7137;51.436;6.544;2023-07-20T13:38:20;1.40;;;0.80;;
14116;SDS011;7137;51.436;6.544;2023-07-20T13:41:22;0.60;;;0.60;;
14116;SDS011;7137;51.436;6.544;2023-07-20T13:44:25;1.53;;;0.80;;
14116;SDS011;7137;51.436;6.544;2023-07-20T13:47:27;2.23;;;0.97;;
14116;SDS011;7137;51.436;6.544;2023-07-20T13:50:29;2.30;;;0.83;;
14116;SDS011;7137;51.436;6.544;2023-07-20T13:53:31;1.43;;;0.80;;
14116;SDS011;7137;51.436;6.544;2023-07-20T13:56:32;2.87;;;0.80;;
14116;SDS011;7137;51.436;6.544;2023-07-20T13:59:35;1.73;;;0.90;;
14116;SDS011;7137;51.436;6.544;2023-07-20T14:02:37;1.60;;;0.90;;
14116;SDS011;7137;51.436;6.544;2023-07-20T14:05:38;2.20;;;0.93;;
14116;SDS011;7137;51.436;6.544;2023-07-20T14:08:40;2.07;;;0.70;;
14116;SDS011;7137;51.436;6.544;2023-07-20T14:11:42;1.90;;;1.17;;
14116;SDS011;7137;51.436;6.544;2023-07-20T14:14:45;2.47;;;1.00;;
14116;SDS011;7137;51.436;6.544;2023-07-20T14:17:46;1.73;;;0.93;;
14116;SDS011;7137;51.436;6.544;2023-07-20T14:20:48;2.17;;;1.03;;
14116;SDS011;7137;51.436;6.544;2023-07-20T14:23:50;1.33;;;0.90;;
14116;SDS011;7137;51.436;6.544;2023-07-20T14:26:53;1.57;;;1.00;;
14116;SDS011;7137;51.436;6.544;2023-07-20T14:29:56;1.87;;;0.93;;
14116;SDS011;7137;51.436;6.544;2023-07-20T14:32:57;2.03;;;1.00;;
14116;SDS011;7137;51.436;6.544;2023-07-20T14:35:59;2.63;;;1.00;;
14116;SDS011;7137;51.436;6.544;2023-07-20T14:39:01;1.50;;;0.90;;
14116;SDS011;7137;51.436;6.544;2023-07-20T14:42:03;2.67;;;0.93;;
14116;SDS011;7137;51.436;6.544;2023-07-20T14:45:07;2.03;;;0.90;;
14116;SDS011;7137;51.436;6.544;2023-07-20T14:48:08;2.13;;;1.00;;
14116;SDS011;7137;51.436;6.544;2023-07-20T14:51:10;1.33;;;0.80;;
14116;SDS011;7137;51.436;6.544;2023-07-20T14:54:12;1.97;;;1.10;;
14116;SDS011;7137;51.436;6.544;2023-07-20T14:57:15;1.53;;;0.87;;
14116;SDS011;7137;51.436;6.544;2023-07-20T15:00:18;1.73;;;0.90;;
14116;SDS011;7137;51.436;6.544;2023-07-20T15:03:20;2.77;;;1.00;;
14116;SDS011;7137;51.436;6.544;2023-07-20T15:06:22;1.93;;;0.97;;
14116;SDS011;7137;51.436;6.544;2023-07-20T15:09:23;2.03;;;1.00;;
14116;SDS011;7137;51.436;6.544;2023-07-20T15:12:25;2.23;;;1.00;;
14116;SDS011;7137;51.436;6.544;2023-07-20T15:15:28;2.63;;;1.10;;
14116;SDS011;7137;51.436;6.544;2023-07-20T15:18:30;1.80;;;0.97;;
14116;SDS011;7137;51.436;6.544;2023-07-20T15:21:32;1.53;;;0.77;;
14116;SDS011;7137;51.436;6.544;2023-07-20T15:24:35;1.83;;;1.03;;
14116;SDS011;7137;51.436;6.544;2023-07-20T15:27:37;2.73;;;0.90;;
14116;SDS011;7137;51.436;6.544;2023-07-20T15:30:42;2.43;;;1.03;;
14116;SDS011;7137;51.436;6.544;2023-07-20T15:33:44;2.13;;;1.07;;
14116;SDS011;7137;51.436;6.544;2023-07-20T15:36:45;1.60;;;0.90;;
14116;SDS011;7137;51.436;6.544;2023-07-20T15:39:47;1.70;;;1.00;;
14116;SDS011;7137;51.436;6.544;2023-07-20T15:42:50;1.10;;;0.87;;
14116;SDS011;7137;51.436;6.544;2023-07-20T15:46:00;2.23;;;0.93;;
14116;SDS011;7137;51.436;6.544;2023-07-20T15:49:02;2.03;;;1.00;;
14116;SDS011;7137;51.436;6.544;2023-07-20T15:52:04;3.00;;;1.10;;
14116;SDS011;7137;51.436;6.544;2023-07-20T15:55:07;3.70;;;1.10;;
14116;SDS011;7137;51.436;6.544;2023-07-20T15:58:09;1.30;;;0.90;;
14116;SDS011;7137;51.436;6.544;2023-07-20T16:01:12;3.90;;;1.00;;
14116;SDS011;7137;51.436;6.544;2023-07-20T16:04:14;1.77;;;0.97;;
14116;SDS011;7137;51.436;6.544;2023-07-20T16:07:15;2.77;;;1.00;;
14116;SDS011;7137;51.436;6.544;2023-07-20T16:10:17;1.53;;;0.90;;
14116;SDS011;7137;51.436;6.544;2023-07-20T16:13:19;2.60;;;1.10;;
14116;SDS011;7137;51.436;6.544;2023-07-20T16:16:21;1.93;;;1.20;;
14116;SDS011;7137;51.436;6.544;2023-07-20T16:19:23;2.17;;;1.10;;
14116;SDS011;7137;51.436;6.544;2023-07-20T16:22:25;3.23;;;1.10;;
14116;SDS011;7137;51.436;6.544;2023-07-20T16:25:26;1.97;;;1.00;;
14116;SDS011;7137;51.436;6.544;2023-07-20T16:28:28;1.90;;;0.90;;
14116;SDS011;7137;51.436;6.544;2023-07-20T16:31:31;2.53;;;0.93;;
14116;SDS011;7137;51.436;6.544;2023-07-20T16:34:32;1.40;;;0.90;;
14116;SDS011;7137;51.436;6.544;2023-07-20T16:37:34;0.90;;;0.80;;
14116;SDS011;7137;51.436;6.544;2023-07-20T16:40:36;2.67;;;0.90;;
14116;SDS011;7137;51.436;6.544;2023-07-20T16:43:38;2.97;;;1.10;;
14116;SDS011;7137;51.436;6.544;2023-07-20T16:46:42;3.53;;;1.07;;
14116;SDS011;7137;51.436;6.544;2023-07-20T16:49:44;1.73;;;1.00;;
14116;SDS011;7137;51.436;6.544;2023-07-20T16:52:46;1.63;;;1.00;;
14116;SDS011;7137;51.436;6.544;2023-07-20T16:55:47;2.53;;;1.00;;
14116;SDS011;7137;51.436;6.544;2023-07-20T16:58:51;1.73;;;1.10;;
14116;SDS011;7137;51.436;6.544;2023-07-20T17:01:54;2.20;;;1.07;;
14116;SDS011;7137;51.436;6.544;2023-07-20T17:04:56;3.33;;;1.10;;
14116;SDS011;7137;51.436;6.544;2023-07-20T17:07:58;1.63;;;0.97;;
14116;SDS011;7137;51.436;6.544;2023-07-20T17:11:00;2.30;;;1.00;;
14116;SDS011;7137;51.436;6.544;2023-07-20T17:14:02;1.60;;;0.90;;
14116;SDS011;7137;51.436;6.544;2023-07-20T17:17:05;1.20;;;0.90;;
14116;SDS011;7137;51.436;6.544;2023-07-20T17:20:07;1.87;;;0.90;;
14116;SDS011;7137;51.436;6.544;2023-07-20T17:23:11;2.67;;;0.97;;
14116;SDS011;7137;51.436;6.544;2023-07-20T17:26:13;1.70;;;0.90;;
14116;SDS011;7137;51.436;6.544;2023-07-20T17:29:14;3.87;;;1.00;;
14116;SDS011;7137;51.436;6.544;2023-07-20T17:32:17;2.67;;;1.10;;
14116;SDS011;7137;51.436;6.544;2023-07-20T17:35:19;3.70;;;1.13;;
14116;SDS011;7137;51.436;6.544;2023-07-20T17:38:20;1.67;;;1.00;;
14116;SDS011;7137;51.436;6.544;2023-07-20T17:41:22;3.17;;;0.93;;
14116;SDS011;7137;51.436;6.544;2023-07-20T17:44:24;1.77;;;1.07;;
14116;SDS011;7137;51.436;6.544;2023-07-20T17:47:27;3.03;;;1.20;;
14116;SDS011;7137;51.436;6.544;2023-07-20T17:50:28;1.20;;;0.87;;
14116;SDS011;7137;51.436;6.544;2023-07-20T17:53:30;1.73;;;0.90;;
14116;SDS011;7137;51.436;6.544;2023-07-20T17:56:32;2.67;;;1.00;;
14116;SDS011;7137;51.436;6.544;2023-07-20T17:59:35;2.23;;;1.10;;
14116;SDS011;7137;51.436;6.544;2023-07-20T18:02:39;1.43;;;0.90;;
14116;SDS011;7137;51.436;6.544;2023-07-20T18:05:40;1.80;;;1.03;;
14116;SDS011;7137;51.436;6.544;2023-07-20T18:08:42;1.60;;;1.00;;
14116;SDS011;7137;51.436;6.544;2023-07-20T18:11:44;2.80;;;1.20;;
14116;SDS011;7137;51.436;6.544;2023-07-20T18:14:45;2.20;;;1.10;;
14116;SDS011;7137;51.436;6.544;2023-07-20T18:17:48;2.80;;;1.10;;
14116;SDS011;7137;51.436;6.544;2023-07-20T18:20:50;2.60;;;1.10;;
14116;SDS011;7137;51.436;6.544;2023-07-20T18:23:52;2.77;;;1.00;;
14116;SDS011;7137;51.436;6.544;2023-07-20T18:26:54;2.20;;;1.10;;
14116;SDS011;7137;51.436;6.544;2023-07-20T18:29:55;1.83;;;1.00;;
14116;SDS011;7137;51.436;6.544;2023-07-20T18:32:58;1.33;;;1.07;;
14116;SDS011;7137;51.436;6.544;2023-07-20T18:36:00;1.60;;;1.20;;
14116;SDS011;7137;51.436;6.544;2023-07-20T18:39:02;1.83;;;1.07;;